Time;durP1;ratioP1;P1;durP2;ratioP2;P2;SDS_P1;SDS_P2;PMS_P1;PMS_P2;Temp;Humidity;BMP_temperature;BMP_pressure;BME280_temperature;BME280_humidity;BME280_pressure;Samples;Min_cycle;Max_cycle;Signal;HPM_P1;HPM_P2
2023/09/07 00:00:35;;;;;;;6.60;5.03;;;;;;;21.47;62.18;101814.31;5078430;28;20079;-71
2023/09/07 00:03:00;;;;;;;6.68;4.50;;;;;;;21.47;61.76;101809.78;5081937;28;20070;-71
2023/09/07 00:05:26;;;;;;;5.15;4.65;;;;;;;21.44;61.54;101807.31;5077853;28;20046;-71
2023/09/07 00:07:51;;;;;;;4.38;3.88;;;;;;;21.42;62.66;101805.72;5080795;28;20499;-71
2023/09/07 00:10:17;;;;;;;4.13;3.72;;;;;;;21.28;62.02;101802.13;5078365;28;20021;-71
2023/09/07 00:12:43;;;;;;;5.72;4.47;;;;;;;21.18;63.10;101810.94;5076510;28;20059;-71
2023/09/07 00:15:10;;;;;;;4.63;4.20;;;;;;;21.14;61.81;101808.47;5086260;28;20509;-71
2023/09/07 00:17:35;;;;;;;4.05;3.75;;;;;;;21.07;62.61;101803.59;5078594;28;20062;-71
2023/09/07 00:20:04;;;;;;;4.07;3.75;;;;;;;21.03;62.50;101807.47;5081450;28;20089;-71
2023/09/07 00:22:29;;;;;;;6.63;4.32;;;;;;;20.96;62.44;101801.66;5076475;28;20070;-71
2023/09/07 00:24:54;;;;;;;4.35;3.97;;;;;;;20.96;63.59;101809.72;5079360;28;20490;-71
2023/09/07 00:27:20;;;;;;;6.05;4.82;;;;;;;20.84;63.18;101800.69;5075300;28;20029;-71
2023/09/07 00:29:45;;;;;;;6.80;6.10;;;;;;;20.81;63.71;101792.81;5078596;28;20035;-71
2023/09/07 00:32:10;;;;;;;7.63;6.00;;;;;;;20.78;64.19;101801.09;5075527;28;20113;-71
2023/09/07 00:34:35;;;;;;;7.38;5.90;;;;;;;20.71;64.54;101796.25;5079739;28;20127;-71
2023/09/07 00:37:01;;;;;;;5.68;5.18;;;;;;;20.69;64.75;101792.78;5078214;28;20102;-71
2023/09/07 00:39:26;;;;;;;13.45;7.43;;;;;;;20.55;63.82;101791.03;5082606;28;20026;-70
2023/09/07 00:41:51;;;;;;;6.82;6.05;;;;;;;20.40;64.68;101792.88;5084330;28;20451;-71
2023/09/07 00:44:16;;;;;;;8.32;7.15;;;;;;;20.31;64.40;101788.13;5077580;28;20044;-71
2023/09/07 00:46:44;;;;;;;7.50;6.70;;;;;;;20.21;64.66;101790.53;5074570;28;20020;-71
2023/09/07 00:49:10;;;;;;;8.77;6.72;;;;;;;20.03;65.62;101786.38;5082309;28;20041;-71
2023/09/07 00:51:36;;;;;;;10.20;7.80;;;;;;;19.95;66.56;101780.63;5072192;28;20549;-71
2023/09/07 00:54:01;;;;;;;8.38;7.30;;;;;;;20.02;67.07;101790.03;5094605;28;20028;-70
2023/09/07 00:56:27;;;;;;;9.18;8.07;;;;;;;20.15;66.42;101787.41;5075962;28;20028;-71
2023/09/07 00:58:54;;;;;;;7.97;7.18;;;;;;;20.23;66.28;101796.66;5083984;28;20029;-70
2023/09/07 01:01:21;;;;;;;8.23;6.22;;;;;;;20.23;65.91;101793.13;5085579;28;20394;-70
2023/09/07 01:03:46;;;;;;;7.38;6.35;;;;;;;20.30;65.29;101803.38;5090282;28;20487;-71
2023/09/07 01:06:35;;;;;;;7.70;6.15;;;;;;;20.47;63.91;101790.63;5079778;28;20029;-71
2023/09/07 01:09:10;;;;;;;8.80;7.18;;;;;;;20.41;65.44;101794.59;5075108;28;20067;-71
2023/09/07 01:11:37;;;;;;;9.70;6.82;;;;;;;20.33;65.59;101789.75;5079280;28;20062;-71
2023/09/07 01:14:03;;;;;;;9.35;6.90;;;;;;;20.32;65.40;101792.53;5083123;28;20097;-71
2023/09/07 01:16:30;;;;;;;9.05;5.88;;;;;;;20.17;65.33;101789.03;5078019;28;20260;-70
2023/09/07 01:18:56;;;;;;;5.35;4.72;;;;;;;20.11;64.62;101781.38;5084711;28;20065;-71
2023/09/07 01:21:22;;;;;;;4.93;4.43;;;;;;;20.00;65.79;101783.88;5082494;28;20074;-71
2023/09/07 01:23:48;;;;;;;5.15;4.63;;;;;;;19.99;65.23;101782.16;5085185;28;20429;-71
2023/09/07 01:26:14;;;;;;;4.32;3.92;;;;;;;19.84;66.60;101784.88;5085409;28;20538;-71
2023/09/07 01:28:39;;;;;;;4.05;3.65;;;;;;;19.81;66.07;101795.78;5080716;28;20091;-71
2023/09/07 01:31:06;;;;;;;4.43;4.03;;;;;;;19.68;67.03;101785.94;5077550;28;20032;-71
2023/09/07 01:33:31;;;;;;;5.10;4.38;;;;;;;19.71;65.99;101789.28;5083140;28;20024;-71
2023/09/07 01:35:56;;;;;;;4.60;3.78;;;;;;;19.66;65.19;101787.88;5086374;28;20027;-71
2023/09/07 01:38:21;;;;;;;4.50;3.92;;;;;;;19.65;65.34;101786.16;5078629;28;20056;-71
2023/09/07 01:40:47;;;;;;;4.78;3.83;;;;;;;19.65;66.71;101789.69;5097271;28;20032;-70
2023/09/07 01:43:12;;;;;;;4.38;3.95;;;;;;;19.63;67.45;101780.88;5087162;28;20024;-71
2023/09/07 01:45:38;;;;;;;6.43;5.30;;;;;;;19.57;66.43;101778.53;5096595;28;20040;-71
2023/09/07 01:48:05;;;;;;;5.53;4.65;;;;;;;19.41;66.47;101783.16;5079576;28;20029;-71
2023/09/07 01:50:31;;;;;;;5.97;5.47;;;;;;;19.17;67.16;101774.81;5089057;28;20678;-71
2023/09/07 01:52:56;;;;;;;9.80;6.72;;;;;;;19.31;66.66;101781.06;5085295;28;20082;-71
2023/09/07 01:55:21;;;;;;;7.78;6.97;;;;;;;19.30;67.20;101773.06;5086794;28;20031;-71
2023/09/07 01:57:47;;;;;;;10.30;8.13;;;;;;;19.24;67.62;101763.59;5079690;28;20067;-71
2023/09/07 02:00:12;;;;;;;11.77;10.13;;;;;;;19.25;68.58;101769.81;5083078;28;20032;-70
2023/09/07 02:02:38;;;;;;;14.43;9.70;;;;;;;19.33;68.94;101775.56;5078570;28;20042;-71
2023/09/07 02:05:03;;;;;;;13.50;11.68;;;;;;;19.13;70.92;101774.13;5079046;28;20036;-71
2023/09/07 02:07:29;;;;;;;13.10;9.85;;;;;;;19.17;69.79;101766.78;5081921;28;20034;-70
2023/09/07 02:09:54;;;;;;;12.65;10.27;;;;;;;19.18;69.30;101764.00;5072771;28;20028;-70
2023/09/07 02:12:19;;;;;;;14.00;9.23;;;;;;;19.18;69.63;101773.84;5086404;28;20048;-71
2023/09/07 02:14:45;;;;;;;11.73;10.02;;;;;;;19.23;69.53;101771.75;5089880;28;20038;-70
2023/09/07 02:17:14;;;;;;;10.02;8.95;;;;;;;19.22;69.50;101767.34;5088228;28;20074;-71
2023/09/07 02:19:39;;;;;;;7.18;6.47;;;;;;;19.14;68.81;101772.31;5085611;28;20069;-71
2023/09/07 02:22:04;;;;;;;8.43;6.97;;;;;;;19.06;68.94;101772.78;5079594;28;20031;-70
2023/09/07 02:24:30;;;;;;;10.65;9.55;;;;;;;18.99;70.24;101774.97;5090399;28;20348;-71
2023/09/07 02:26:55;;;;;;;11.57;10.25;;;;;;;18.90;69.96;101772.00;5090627;28;20032;-71
2023/09/07 02:29:20;;;;;;;10.95;8.57;;;;;;;18.88;70.20;101764.03;5080752;28;20036;-70
2023/09/07 02:31:45;;;;;;;11.23;9.50;;;;;;;18.86;70.37;101768.63;5091793;28;20035;-70
2023/09/07 02:34:11;;;;;;;12.27;10.63;;;;;;;18.91;70.43;101773.72;5078741;28;20475;-71
2023/09/07 02:36:36;;;;;;;12.65;10.55;;;;;;;19.05;69.54;101763.88;5087200;28;20064;-70
2023/09/07 02:39:01;;;;;;;13.85;10.05;;;;;;;19.16;69.64;101768.56;5088845;28;20031;-70
2023/09/07 02:41:27;;;;;;;14.55;10.35;;;;;;;19.18;69.06;101771.16;5081447;28;20517;-71
2023/09/07 02:43:52;;;;;;;11.80;10.52;;;;;;;19.14;68.79;101775.84;5078649;28;20031;-71
2023/09/07 02:46:17;;;;;;;11.38;9.38;;;;;;;19.11;68.61;101768.00;5086547;28;20063;-71
2023/09/07 02:48:43;;;;;;;11.40;9.30;;;;;;;19.04;68.99;101772.00;5086602;28;20072;-71
2023/09/07 02:51:08;;;;;;;9.60;8.10;;;;;;;18.97;68.91;101770.66;5084752;28;20028;-71
2023/09/07 02:53:33;;;;;;;9.85;8.05;;;;;;;18.88;68.63;101768.53;5083361;28;20050;-70
2023/09/07 02:56:00;;;;;;;9.90;7.82;;;;;;;18.80;68.70;101771.69;5091358;28;20031;-70
2023/09/07 02:58:26;;;;;;;11.07;8.60;;;;;;;18.69;69.28;101774.13;5087975;28;20020;-70
2023/09/07 03:00:51;;;;;;;9.88;8.52;;;;;;;18.63;69.85;101769.97;5082245;28;20023;-71
2023/09/07 03:03:17;;;;;;;10.63;8.20;;;;;;;18.55;68.90;101769.53;5086106;28;20118;-71
2023/09/07 03:05:43;;;;;;;8.10;7.25;;;;;;;18.46;69.96;101765.59;5082750;28;20023;-71
2023/09/07 03:08:08;;;;;;;11.23;8.13;;;;;;;18.40;69.30;101762.41;5087248;28;20371;-70
2023/09/07 03:10:39;;;;;;;8.73;7.30;;;;;;;18.40;69.78;101765.09;5083040;28;20031;-71
2023/09/07 03:13:05;;;;;;;10.48;7.85;;;;;;;18.38;70.11;101756.31;5077411;28;20033;-70
2023/09/07 03:15:30;;;;;;;10.63;9.05;;;;;;;18.41;70.09;101764.13;5083307;28;20011;-71
2023/09/07 03:17:55;;;;;;;11.35;8.93;;;;;;;18.43;70.53;101767.59;5074952;28;20047;-71
2023/09/07 03:20:21;;;;;;;13.60;10.38;;;;;;;18.46;70.43;101764.72;5072841;28;20456;-71
2023/09/07 03:22:46;;;;;;;12.25;10.48;;;;;;;18.49;70.36;101767.22;5073419;28;20024;-70
2023/09/07 03:25:12;;;;;;;14.23;11.05;;;;;;;18.47;71.10;101775.38;5083729;28;20069;-71
2023/09/07 03:27:37;;;;;;;14.40;11.15;;;;;;;18.52;71.24;101765.25;5086538;28;20031;-71
2023/09/07 03:30:05;;;;;;;14.63;11.25;;;;;;;18.52;70.92;101772.41;5080860;28;20058;-70
2023/09/07 03:32:32;;;;;;;13.68;10.77;;;;;;;18.46;70.26;101760.22;5073476;28;20094;-70
2023/09/07 03:34:58;;;;;;;14.05;11.30;;;;;;;18.47;71.40;101763.81;5090475;28;20119;-71
2023/09/07 03:37:24;;;;;;;13.57;11.10;;;;;;;18.40;70.78;101760.59;5082200;28;20470;-71
2023/09/07 03:39:50;;;;;;;15.13;11.32;;;;;;;18.45;71.13;101768.38;5088852;28;20025;-70
2023/09/07 03:42:16;;;;;;;12.38;10.48;;;;;;;18.45;71.55;101771.91;5072194;28;20032;-70
2023/09/07 03:44:41;;;;;;;11.55;10.25;;;;;;;18.47;70.52;101775.38;5086436;28;20336;-71
2023/09/07 03:47:06;;;;;;;12.98;10.05;;;;;;;18.44;70.49;101777.34;5081634;28;20055;-71
2023/09/07 03:49:31;;;;;;;14.32;9.45;;;;;;;18.50;69.51;101777.00;5078958;28;20056;-71
2023/09/07 03:51:57;;;;;;;11.18;9.40;;;;;;;18.54;69.16;101776.72;5093335;28;20360;-71
2023/09/07 03:54:22;;;;;;;11.52;9.23;;;;;;;18.57;69.14;101783.72;5081989;28;20024;-71
2023/09/07 03:56:47;;;;;;;14.32;9.88;;;;;;;18.57;69.50;101781.03;5082528;28;20534;-70
2023/09/07 03:59:12;;;;;;;12.30;10.25;;;;;;;18.50;70.10;101783.19;5076849;28;20123;-71
2023/09/07 04:01:38;;;;;;;10.52;9.30;;;;;;;18.44;70.01;101772.84;5086571;28;20028;-70
2023/09/07 04:04:03;;;;;;;11.23;8.90;;;;;;;18.18;70.78;101778.84;5082193;28;20023;-71
2023/09/07 04:06:28;;;;;;;13.23;9.05;;;;;;;18.04;70.19;101776.94;5086830;28;20032;-70
2023/09/07 04:08:54;;;;;;;11.27;9.13;;;;;;;17.89;70.48;101775.16;5086107;28;20130;-70
2023/09/07 04:11:19;;;;;;;12.25;7.95;;;;;;;17.73;71.30;101781.34;5075518;28;20023;-70
2023/09/07 04:13:44;;;;;;;8.82;7.90;;;;;;;17.63;71.39;101780.09;5086194;28;20638;-70
2023/09/07 04:16:10;;;;;;;8.07;7.13;;;;;;;17.52;72.00;101771.78;5085867;28;20056;-70
2023/09/07 04:18:35;;;;;;;7.97;7.13;;;;;;;17.48;72.33;101776.44;5079276;28;20065;-71
2023/09/07 04:21:07;;;;;;;7.97;7.18;;;;;;;17.47;72.10;101781.88;5083547;28;20333;-71
2023/09/07 04:23:34;;;;;;;9.43;7.47;;;;;;;17.44;72.78;101771.34;5078366;28;20039;-71
2023/09/07 04:26:10;;;;;;;9.73;7.97;;;;;;;17.52;71.81;101777.13;5084573;28;20517;-70
2023/09/07 04:28:36;;;;;;;12.63;8.65;;;;;;;17.58;72.21;101771.47;5077102;28;20028;-71
2023/09/07 04:31:02;;;;;;;8.10;7.03;;;;;;;17.54;72.12;101773.44;5085261;28;20031;-71
2023/09/07 04:33:30;;;;;;;8.63;6.85;;;;;;;17.60;71.20;101774.91;5083167;28;20511;-71
2023/09/07 04:35:55;;;;;;;6.90;6.13;;;;;;;17.65;70.66;101777.34;5084773;28;20039;-70
2023/09/07 04:38:21;;;;;;;8.43;6.70;;;;;;;17.64;70.37;101781.81;5082419;28;20028;-71
2023/09/07 04:40:46;;;;;;;6.88;6.18;;;;;;;17.64;69.66;101786.31;5087773;28;20024;-70
2023/09/07 04:43:11;;;;;;;7.20;6.35;;;;;;;17.62;70.29;101783.69;5080263;28;20521;-70
2023/09/07 04:45:36;;;;;;;7.90;6.53;;;;;;;17.64;69.66;101789.84;5078124;28;20044;-71
2023/09/07 04:48:02;;;;;;;6.68;6.05;;;;;;;17.64;69.78;101780.97;5081555;28;20028;-71
2023/09/07 04:50:28;;;;;;;9.40;6.57;;;;;;;17.63;70.66;101785.44;5092545;28;20423;-71
2023/09/07 04:52:53;;;;;;;7.55;6.20;;;;;;;17.59;71.44;101787.44;5076644;28;20023;-71
2023/09/07 04:55:18;;;;;;;6.82;6.03;;;;;;;17.54;71.84;101785.94;5073878;28;20027;-70
2023/09/07 04:57:43;;;;;;;7.88;6.15;;;;;;;17.44;71.94;101780.25;5088643;28;20073;-71
2023/09/07 05:00:09;;;;;;;6.60;5.55;;;;;;;17.33;71.55;101777.25;5084352;28;20059;-70
2023/09/07 05:02:40;;;;;;;5.18;4.68;;;;;;;17.26;72.62;101782.09;5082115;28;20036;-70
2023/09/07 05:05:06;;;;;;;6.05;4.28;;;;;;;17.17;71.75;101785.25;5081058;28;20024;-70
2023/09/07 05:07:31;;;;;;;5.90;5.22;;;;;;;17.10;72.42;101791.84;5085647;28;20042;-70
2023/09/07 05:09:57;;;;;;;6.43;5.82;;;;;;;17.11;71.58;101785.53;5087378;28;20024;-70
2023/09/07 05:12:22;;;;;;;6.50;5.88;;;;;;;17.10;71.45;101791.84;5081872;28;20029;-71
2023/09/07 05:14:47;;;;;;;6.75;6.05;;;;;;;17.11;72.78;101793.56;5076513;28;20036;-70
2023/09/07 05:17:12;;;;;;;8.10;6.55;;;;;;;17.12;72.35;101797.13;5083958;28;20032;-71
2023/09/07 05:19:38;;;;;;;8.52;6.50;;;;;;;17.09;72.02;101799.00;5081923;28;20080;-70
2023/09/07 05:22:03;;;;;;;8.70;6.85;;;;;;;17.09;72.44;101798.13;5076414;28;20024;-71
2023/09/07 05:24:28;;;;;;;8.82;7.75;;;;;;;17.09;73.44;101799.00;5087120;28;20121;-70
2023/09/07 05:26:54;;;;;;;9.40;7.63;;;;;;;17.17;73.43;101803.94;5082644;28;20036;-71
2023/09/07 05:29:21;;;;;;;7.30;6.60;;;;;;;17.21;73.58;101808.19;5093210;28;21599;-71
2023/09/07 05:31:46;;;;;;;6.78;6.15;;;;;;;17.22;72.34;101801.03;5090928;28;20032;-71
2023/09/07 05:34:12;;;;;;;8.77;6.65;;;;;;;17.26;72.04;101806.13;5078454;28;20086;-71
2023/09/07 05:36:37;;;;;;;7.40;6.47;;;;;;;17.26;73.06;101810.63;5093158;28;20705;-70
2023/09/07 05:39:03;;;;;;;8.68;5.93;;;;;;;17.24;72.62;101808.00;5079668;28;20032;-70
2023/09/07 05:41:29;;;;;;;7.07;5.85;;;;;;;17.23;74.27;101810.78;5081249;28;20300;-71
2023/09/07 05:43:54;;;;;;;7.13;6.07;;;;;;;17.24;74.41;101810.69;5077557;28;20031;-71
2023/09/07 05:46:20;;;;;;;7.28;6.57;;;;;;;17.26;73.91;101819.50;5094281;28;20024;-71
2023/09/07 05:48:45;;;;;;;7.60;6.07;;;;;;;17.30;74.27;101815.72;5086123;28;20407;-71
2023/09/07 05:51:10;;;;;;;9.35;5.60;;;;;;;17.32;73.23;101821.84;5092336;28;20105;-71
2023/09/07 05:53:36;;;;;;;8.25;7.38;;;;;;;17.32;72.96;101813.81;5079478;28;20047;-71
2023/09/07 05:56:01;;;;;;;9.35;6.80;;;;;;;17.36;73.32;101819.88;5086480;28;20025;-71
2023/09/07 05:58:27;;;;;;;7.10;6.38;;;;;;;17.34;73.08;101819.94;5084225;28;20016;-71
2023/09/07 06:00:52;;;;;;;9.02;6.70;;;;;;;17.37;74.86;101813.59;5081765;28;20021;-71
2023/09/07 06:03:18;;;;;;;8.13;7.32;;;;;;;17.41;74.03;101824.97;5085714;28;20034;-70
2023/09/07 06:05:44;;;;;;;11.05;8.63;;;;;;;17.51;74.50;101823.53;5091858;28;20035;-71
2023/09/07 06:08:10;;;;;;;9.07;7.28;;;;;;;17.54;74.26;101828.72;5084220;28;20115;-71
2023/09/07 06:10:35;;;;;;;6.07;5.45;;;;;;;17.54;73.91;101834.94;5085580;28;20072;-71
2023/09/07 06:13:00;;;;;;;7.70;5.65;;;;;;;17.59;74.06;101835.56;5081584;28;20027;-71
2023/09/07 06:15:27;;;;;;;6.95;6.32;;;;;;;17.64;73.92;101838.00;5087262;28;20023;-71
2023/09/07 06:17:52;;;;;;;9.25;7.78;;;;;;;17.64;74.35;101831.78;5080106;28;20032;-71
2023/09/07 06:20:19;;;;;;;10.38;8.55;;;;;;;17.68;74.82;101841.38;5081844;28;20031;-71
2023/09/07 06:22:45;;;;;;;11.18;9.90;;;;;;;17.75;74.54;101837.44;5077234;28;20541;-71
2023/09/07 06:25:10;;;;;;;12.45;10.52;;;;;;;17.84;74.69;101839.59;5082641;28;20032;-71
2023/09/07 06:27:35;;;;;;;12.30;9.52;;;;;;;17.93;73.50;101846.28;5087663;28;20034;-71
2023/09/07 06:30:00;;;;;;;14.52;10.98;;;;;;;18.01;74.48;101841.38;5080865;28;20020;-70
2023/09/07 06:32:26;;;;;;;17.13;11.20;;;;;;;18.27;74.42;101850.59;5079844;28;20505;-71
2023/09/07 06:34:51;;;;;;;13.98;11.00;;;;;;;18.39;73.90;101847.22;5083622;28;20028;-71
2023/09/07 06:37:17;;;;;;;13.70;11.50;;;;;;;18.48;75.39;101843.19;5085745;28;20024;-71
2023/09/07 06:39:43;;;;;;;15.90;13.70;;;;;;;18.57;76.76;101842.66;5083997;28;20051;-71
2023/09/07 06:42:09;;;;;;;15.52;12.70;;;;;;;18.66;75.18;101844.78;5081850;28;20035;-71
2023/09/07 06:44:35;;;;;;;15.90;13.30;;;;;;;18.77;76.30;101849.56;5079753;28;20032;-71
2023/09/07 06:47:00;;;;;;;15.85;13.68;;;;;;;18.85;74.97;101856.19;5078560;28;20023;-71
2023/09/07 06:49:25;;;;;;;16.73;13.57;;;;;;;18.96;75.94;101847.50;5098639;28;20043;-71
2023/09/07 06:51:50;;;;;;;16.58;13.35;;;;;;;19.08;75.69;101843.25;5077531;28;20578;-71
2023/09/07 06:54:16;;;;;;;16.70;14.30;;;;;;;19.16;74.84;101849.00;5095555;28;20381;-71
2023/09/07 06:56:41;;;;;;;17.33;14.00;;;;;;;19.28;75.13;101847.41;5078588;28;20035;-71
2023/09/07 06:59:06;;;;;;;14.90;12.95;;;;;;;19.36;73.63;101845.13;5077471;28;20025;-71
2023/09/07 07:01:32;;;;;;;20.00;14.75;;;;;;;19.46;74.39;101848.09;5082917;28;20028;-71
2023/09/07 07:03:57;;;;;;;14.00;11.57;;;;;;;19.57;72.63;101842.94;5083202;28;20032;-71
2023/09/07 07:06:23;;;;;;;19.98;14.48;;;;;;;19.56;74.68;101846.56;5082098;28;20020;-71
2023/09/07 07:08:48;;;;;;;15.27;12.38;;;;;;;19.63;74.02;101850.63;5078614;28;20082;-71
2023/09/07 07:11:13;;;;;;;20.98;16.08;;;;;;;19.72;74.38;101857.22;5078960;28;20081;-71
2023/09/07 07:13:39;;;;;;;19.73;13.55;;;;;;;19.88;74.05;101856.19;5080832;28;20081;-71
2023/09/07 07:16:04;;;;;;;19.05;15.15;;;;;;;19.95;73.87;101862.03;5087231;28;20028;-71
2023/09/07 07:18:30;;;;;;;16.98;14.88;;;;;;;19.98;73.48;101856.47;5080616;28;20032;-71
2023/09/07 07:20:55;;;;;;;16.90;14.40;;;;;;;20.10;74.08;101862.88;5076102;28;20066;-71
2023/09/07 07:23:20;;;;;;;17.17;14.52;;;;;;;20.23;73.63;101861.13;5078139;28;20107;-71
2023/09/07 07:25:46;;;;;;;16.13;13.57;;;;;;;20.34;71.44;101864.00;5079658;28;20050;-71
2023/09/07 07:28:11;;;;;;;17.92;14.32;;;;;;;20.46;72.22;101865.00;5080345;28;20020;-71
2023/09/07 07:30:40;;;;;;;18.52;13.88;;;;;;;20.58;72.37;101852.63;5075909;28;20039;-70
2023/09/07 07:33:05;;;;;;;18.40;13.90;;;;;;;20.73;71.75;101862.34;5082882;28;20586;-71
2023/09/07 07:35:32;;;;;;;17.95;13.27;;;;;;;20.85;71.40;101860.69;5087992;28;20052;-70
2023/09/07 07:37:57;;;;;;;16.42;14.13;;;;;;;20.96;70.87;101858.13;5086635;28;20024;-71
2023/09/07 07:40:22;;;;;;;16.63;12.48;;;;;;;21.10;70.58;101862.56;5084773;28;20673;-71
2023/09/07 07:42:48;;;;;;;17.63;12.57;;;;;;;21.26;69.02;101867.72;5089197;28;20028;-71
2023/09/07 07:45:14;;;;;;;15.25;11.02;;;;;;;21.50;69.47;101859.84;5080002;28;20035;-70
2023/09/07 07:47:41;;;;;;;14.07;11.77;;;;;;;21.77;67.60;101862.41;5082958;28;20107;-71
2023/09/07 07:50:06;;;;;;;12.88;10.75;;;;;;;22.08;66.23;101870.00;5086193;28;20070;-71
2023/09/07 07:52:31;;;;;;;13.73;11.45;;;;;;;22.51;65.29;101860.66;5072263;28;20451;-71
2023/09/07 07:54:57;;;;;;;12.55;9.95;;;;;;;22.96;64.22;101855.50;5085935;28;20030;-71
2023/09/07 07:57:22;;;;;;;12.63;9.98;;;;;;;23.39;61.77;101853.88;5077056;28;20028;-70
2023/09/07 07:59:47;;;;;;;11.40;10.13;;;;;;;23.85;60.71;101844.88;5074546;28;20058;-70
2023/09/07 08:02:13;;;;;;;13.95;10.10;;;;;;;24.14;59.60;101856.03;5068922;28;20060;-71
2023/09/07 08:04:38;;;;;;;13.80;9.90;;;;;;;24.39;59.43;101854.06;5078126;28;20024;-72
2023/09/07 08:07:03;;;;;;;12.55;9.90;;;;;;;24.63;57.34;101851.16;5091444;28;20085;-75
2023/09/07 08:09:32;;;;;;;12.55;8.80;;;;;;;24.85;56.43;101845.63;5081120;28;20074;-71
2023/09/07 08:11:58;;;;;;;12.32;9.27;;;;;;;25.27;54.15;101844.84;5088616;28;20441;-70
2023/09/07 08:14:25;;;;;;;12.73;9.70;;;;;;;25.40;53.85;101840.94;5075161;28;20028;-70
2023/09/07 08:16:50;;;;;;;11.45;8.30;;;;;;;25.68;54.68;101841.22;5078542;28;20636;-71
2023/09/07 08:19:15;;;;;;;10.73;8.73;;;;;;;25.80;53.86;101828.50;5081338;28;20404;-70
2023/09/07 08:21:42;;;;;;;12.38;9.32;;;;;;;25.90;53.68;101838.38;5082667;28;20023;-71
2023/09/07 08:24:08;;;;;;;11.98;8.35;;;;;;;26.21;52.63;101835.63;5080390;28;20055;-71
2023/09/07 08:26:33;;;;;;;10.13;7.72;;;;;;;26.63;51.43;101827.28;5088818;28;20479;-70
2023/09/07 08:28:59;;;;;;;10.43;7.65;;;;;;;26.96;48.16;101824.13;5090885;28;20023;-70
2023/09/07 08:31:24;;;;;;;10.18;7.22;;;;;;;27.04;52.34;101820.66;5077111;28;20027;-70
2023/09/07 08:33:54;;;;;;;10.75;8.25;;;;;;;27.14;50.29;101817.97;5097085;28;20019;-71
2023/09/07 08:36:22;;;;;;;9.40;6.82;;;;;;;27.36;49.12;101816.78;5077587;28;20028;-70
2023/09/07 08:38:47;;;;;;;10.45;7.40;;;;;;;27.49;48.87;101816.47;5087528;28;20471;-70
2023/09/07 08:41:14;;;;;;;10.25;7.22;;;;;;;27.73;47.96;101814.09;5088481;28;20024;-71
2023/09/07 08:43:48;;;;;;;8.57;6.15;;;;;;;28.37;48.30;101810.47;5087872;28;20109;-70
2023/09/07 08:46:15;;;;;;;8.25;6.55;;;;;;;28.45;45.88;101810.56;5083725;28;20030;-71
2023/09/07 08:48:42;;;;;;;7.50;5.90;;;;;;;28.77;45.25;101814.56;5084121;28;20139;-70
2023/09/07 08:51:07;;;;;;;7.78;5.40;;;;;;;28.90;45.60;101820.47;5079186;27;20544;-70
2023/09/07 08:53:33;;;;;;;7.82;5.63;;;;;;;28.91;44.83;101808.59;5086632;28;20119;-70
2023/09/07 08:56:01;;;;;;;5.82;5.22;;;;;;;29.17;45.40;101810.50;5083809;28;20517;-71
2023/09/07 08:58:26;;;;;;;6.38;5.60;;;;;;;29.41;44.09;101807.91;5083308;28;20556;-71
2023/09/07 09:00:53;;;;;;;10.27;6.13;;;;;;;29.79;42.91;101805.75;5083031;28;20032;-70
2023/09/07 09:03:18;;;;;;;7.15;5.85;;;;;;;30.11;41.59;101804.16;5091461;28;20333;-71
2023/09/07 09:05:46;;;;;;;8.43;4.85;;;;;;;30.65;41.64;101799.19;5082357;28;20100;-71
2023/09/07 09:08:11;;;;;;;8.45;5.22;;;;;;;31.09;41.62;101796.97;5083747;28;20028;-71
2023/09/07 09:10:40;;;;;;;8.35;4.90;;;;;;;31.36;40.44;101798.47;5076656;28;20032;-71
2023/09/07 09:13:05;;;;;;;5.70;4.70;;;;;;;31.49;37.19;101798.78;5089318;28;20039;-71
2023/09/07 09:15:31;;;;;;;5.40;4.53;;;;;;;31.65;36.97;101795.13;5090168;28;20038;-71
2023/09/07 09:17:56;;;;;;;4.88;4.47;;;;;;;32.02;37.69;101806.47;5084706;28;20046;-71
2023/09/07 09:20:28;;;;;;;7.57;4.40;;;;;;;32.41;38.89;101804.56;5087694;28;20035;-71
2023/09/07 09:22:55;;;;;;;4.60;3.97;;;;;;;32.78;35.22;101811.09;5081411;28;20063;-71
2023/09/07 09:25:21;;;;;;;4.65;4.13;;;;;;;33.09;34.91;101799.19;5088472;28;20016;-71
2023/09/07 09:27:47;;;;;;;5.00;4.25;;;;;;;33.42;34.91;101802.44;5100043;27;20845;-71
2023/09/07 09:30:15;;;;;;;6.70;4.13;;;;;;;33.90;32.79;101802.91;5099020;28;20379;-72
2023/09/07 09:32:42;;;;;;;7.60;4.10;;;;;;;33.65;33.65;101805.97;5082509;28;20037;-72
2023/09/07 09:35:09;;;;;;;4.88;4.30;;;;;;;34.08;33.52;101803.38;5091189;28;20036;-71
2023/09/07 09:37:42;;;;;;;4.43;3.95;;;;;;;34.72;31.66;101797.09;5081585;28;20505;-71
2023/09/07 09:40:10;;;;;;;5.30;4.43;;;;;;;34.76;31.37;101796.50;5084636;28;20097;-71
2023/09/07 09:42:35;;;;;;;7.03;4.25;;;;;;;34.40;32.64;101796.53;5081838;28;20036;-71
2023/09/07 09:45:02;;;;;;;4.50;4.10;;;;;;;34.76;31.31;101788.25;5084222;28;20020;-71
2023/09/07 09:47:30;;;;;;;6.68;3.90;;;;;;;35.41;30.27;101786.22;5082542;28;20038;-71
2023/09/07 09:49:56;;;;;;;6.97;3.70;;;;;;;35.55;30.00;101778.06;5092031;28;20772;-74
2023/09/07 09:52:21;;;;;;;6.90;4.20;;;;;;;35.98;29.41;101784.22;5082674;28;20027;-72
2023/09/07 09:54:47;;;;;;;9.10;4.30;;;;;;;36.20;28.54;101788.50;5074801;28;20094;-71
2023/09/07 09:57:13;;;;;;;5.35;4.10;;;;;;;36.15;29.14;101787.44;5076144;28;20087;-73
2023/09/07 09:59:39;;;;;;;8.43;4.30;;;;;;;36.03;30.05;101781.69;5081804;28;20024;-73
2023/09/07 10:02:05;;;;;;;5.88;4.05;;;;;;;36.61;29.49;101776.53;5083951;28;20756;-73
2023/09/07 10:04:31;;;;;;;6.18;4.10;;;;;;;37.13;29.22;101773.97;5083943;27;20116;-73
2023/09/07 10:07:00;;;;;;;4.82;3.97;;;;;;;37.21;27.19;101774.59;5077147;28;20368;-73
2023/09/07 10:09:29;;;;;;;6.78;4.07;;;;;;;37.64;27.96;101773.22;5081590;28;20054;-73
2023/09/07 10:11:59;;;;;;;7.00;4.25;;;;;;;37.82;28.43;101778.00;5077191;28;20028;-73
2023/09/07 10:14:25;;;;;;;5.45;4.70;;;;;;;38.30;28.45;101778.44;5085479;28;20019;-73
2023/09/07 10:16:53;;;;;;;6.60;4.28;;;;;;;38.12;27.56;101779.16;5083882;28;20375;-71
2023/09/07 10:19:21;;;;;;;7.55;4.60;;;;;;;38.14;26.13;101779.78;5077765;28;20032;-71
2023/09/07 10:21:47;;;;;;;4.13;3.72;;;;;;;38.64;26.02;101774.34;5080657;28;20044;-71
2023/09/07 10:24:24;;;;;;;6.30;4.93;;;;;;;38.68;26.41;101777.53;5087341;28;20101;-73
2023/09/07 10:27:11;;;;;;;6.30;3.78;;;;;;;38.60;28.13;101788.84;5076581;28;20051;-73
2023/09/07 10:29:46;;;;;;;6.45;4.20;;;;;;;37.95;26.09;101780.75;5074198;28;20472;-73
2023/09/07 10:32:14;;;;;;;4.65;3.85;;;;;;;38.09;27.33;101781.50;5083031;28;20203;-72
2023/09/07 10:34:43;;;;;;;6.78;4.13;;;;;;;37.89;26.93;101776.09;5082699;28;20031;-72
2023/09/07 10:37:15;;;;;;;5.20;4.03;;;;;;;37.80;27.51;101778.25;5080781;28;20030;-72
2023/09/07 10:39:43;;;;;;;7.10;4.15;;;;;;;37.86;27.37;101771.00;5094955;28;20089;-73
2023/09/07 10:42:08;;;;;;;8.73;4.20;;;;;;;37.71;27.32;101768.50;5079973;28;20446;-73
2023/09/07 10:44:33;;;;;;;5.95;3.75;;;;;;;37.91;26.69;101763.75;5074261;28;20118;-73
2023/09/07 10:46:59;;;;;;;4.03;3.67;;;;;;;37.89;27.97;101760.38;5091590;28;20473;-73
2023/09/07 10:49:25;;;;;;;4.72;3.80;;;;;;;37.74;28.22;101765.31;5082911;28;20048;-73
2023/09/07 10:51:51;;;;;;;6.78;3.67;;;;;;;38.18;27.26;101755.31;5078225;28;20063;-73
2023/09/07 10:54:23;;;;;;;5.00;3.78;;;;;;;37.78;26.82;101758.31;5081587;28;20325;-73
2023/09/07 10:56:49;;;;;;;6.07;3.90;;;;;;;37.58;26.88;101754.75;5087047;28;20025;-73
2023/09/07 10:59:16;;;;;;;4.40;4.00;;;;;;;37.04;27.22;101748.53;5079979;28;21038;-73
2023/09/07 11:01:44;;;;;;;4.90;3.78;;;;;;;37.27;28.02;101748.06;5076561;28;20038;-74
2023/09/07 11:04:11;;;;;;;4.15;3.72;;;;;;;37.53;26.66;101745.22;5081170;28;20036;-73
2023/09/07 11:06:37;;;;;;;6.68;3.53;;;;;;;37.61;27.15;101743.31;5080919;28;20036;-75
2023/09/07 11:09:10;;;;;;;4.93;3.90;;;;;;;37.08;27.27;101738.78;5074581;28;20574;-71
2023/09/07 11:11:36;;;;;;;4.88;3.38;;;;;;;37.27;28.52;101737.03;5069182;28;20028;-73
2023/09/07 11:14:05;;;;;;;4.85;3.58;;;;;;;37.36;28.80;101737.66;5082491;28;20081;-73